Time;durP1;ratioP1;P1;durP2;ratioP2;P2;SDS_P1;SDS_P2;PMS_P1;PMS_P2;Temp;Humidity;BMP_temperature;BMP_pressure;BME280_temperature;BME280_humidity;BME280_pressure;Samples;Min_cycle;Max_cycle;Signal;HPM_P1;HPM_P2
2021/06/11 00:01:45;;;;;;;0.13;0.13;;;15.00;99.90;;;;;;4993394;28;20022;-72
2021/06/11 00:04:11;;;;;;;0.38;0.38;;;15.10;99.90;;;;;;4994806;28;20022;-72
2021/06/11 00:06:37;;;;;;;0.63;0.35;;;15.20;99.90;;;;;;4993641;28;20022;-71
2021/06/11 00:09:06;;;;;;;0.82;0.82;;;15.10;99.90;;;;;;4994381;28;20089;-71
2021/06/11 00:11:33;;;;;;;0.17;0.17;;;14.90;99.90;;;;;;4977018;28;20026;-72
2021/06/11 00:13:59;;;;;;;0.20;0.20;;;14.80;99.90;;;;;;4977077;28;20429;-72
2021/06/11 00:16:24;;;;;;;0.50;0.50;;;14.80;99.90;;;;;;4994673;28;20081;-72
2021/06/11 00:18:50;;;;;;;0.30;0.30;;;14.80;99.90;;;;;;4994380;28;20045;-72
2021/06/11 00:21:16;;;;;;;2.90;1.70;;;14.80;99.90;;;;;;4976939;28;20034;-72
2021/06/11 00:23:42;;;;;;;1.08;0.82;;;14.90;99.90;;;;;;4976946;28;20034;-72
2021/06/11 00:26:07;;;;;;;0.25;0.25;;;14.90;99.90;;;;;;4994440;28;20109;-72
2021/06/11 00:28:34;;;;;;;0.10;0.10;;;14.90;99.90;;;;;;4992917;28;20026;-72
2021/06/11 00:30:59;;;;;;;1.25;1.00;;;14.80;99.90;;;;;;4994201;28;20060;-71
2021/06/11 00:33:25;;;;;;;0.45;0.30;;;14.90;99.90;;;;;;4994346;28;20037;-71
2021/06/11 00:35:52;;;;;;;2.05;0.55;;;14.80;99.90;;;;;;4993133;28;20390;-70
2021/06/11 00:38:18;;;;;;;0.30;0.30;;;14.80;99.90;;;;;;4992839;28;20026;-71
2021/06/11 00:40:44;;;;;;;4.80;1.17;;;15.00;99.90;;;;;;4994037;28;20552;-71
2021/06/11 00:43:14;;;;;;;0.40;0.40;;;14.90;99.90;;;;;;4976626;28;20397;-72
2021/06/11 00:45:41;;;;;;;0.45;0.45;;;14.90;99.90;;;;;;4976641;28;20478;-72
2021/06/11 00:48:07;;;;;;;0.43;0.43;;;15.00;99.90;;;;;;4992708;28;20014;-72
2021/06/11 00:50:35;;;;;;;0.10;0.10;;;15.10;99.90;;;;;;4994016;28;20153;-72
2021/06/11 00:53:01;;;;;;;0.10;0.10;;;15.10;99.90;;;;;;4992573;28;20486;-72
2021/06/11 00:55:28;;;;;;;0.10;0.10;;;15.30;99.90;;;;;;4976830;28;20230;-72
2021/06/11 00:57:54;;;;;;;0.10;0.10;;;15.40;99.90;;;;;;4960206;28;20057;-71
2021/06/11 01:00:20;;;;;;;0.10;0.10;;;15.50;99.90;;;;;;4993801;28;20444;-72
2021/06/11 01:02:46;;;;;;;0.73;0.45;;;15.50;99.90;;;;;;4976249;28;20046;-72
2021/06/11 01:05:12;;;;;;;0.10;0.10;;;15.50;99.90;;;;;;4993664;28;20026;-71
2021/06/11 01:07:41;;;;;;;0.10;0.10;;;15.40;99.90;;;;;;4993593;28;20466;-71
2021/06/11 01:10:09;;;;;;;1.10;0.43;;;15.40;99.90;;;;;;4992401;28;20034;-72
2021/06/11 01:12:37;;;;;;;0.43;0.22;;;15.20;99.90;;;;;;4976111;28;20038;-72
2021/06/11 01:15:06;;;;;;;0.10;0.10;;;15.10;99.90;;;;;;4992565;28;20358;-71
2021/06/11 01:17:34;;;;;;;0.70;0.50;;;15.00;99.90;;;;;;4993480;28;20061;-72
2021/06/11 01:20:01;;;;;;;0.70;0.70;;;15.20;99.90;;;;;;4993317;28;20068;-71
2021/06/11 01:22:42;;;;;;;13.65;2.70;;;15.10;99.90;;;;;;4992260;28;20033;-71
2021/06/11 01:25:08;;;;;;;0.93;0.50;;;15.00;99.90;;;;;;4993333;28;20058;-72
2021/06/11 01:27:35;;;;;;;0.63;0.63;;;15.00;99.90;;;;;;4993284;28;20061;-72
2021/06/11 01:30:15;;;;;;;0.10;0.10;;;14.90;99.90;;;;;;4975755;28;20026;-72
2021/06/11 01:32:44;;;;;;;0.88;0.70;;;14.80;99.90;;;;;;4993129;28;20026;-72
2021/06/11 01:35:16;;;;;;;0.10;0.10;;;15.00;99.90;;;;;;4993111;28;20057;-72
2021/06/11 01:37:43;;;;;;;0.10;0.10;;;15.00;99.90;;;;;;4993128;28;20382;-72
2021/06/11 01:40:11;;;;;;;0.65;0.52;;;15.10;99.90;;;;;;4993419;28;20030;-71
2021/06/11 01:42:39;;;;;;;0.10;0.10;;;15.10;99.90;;;;;;4993019;28;20026;-71
2021/06/11 01:45:09;;;;;;;0.10;0.10;;;15.20;99.90;;;;;;4992928;28;20037;-71
2021/06/11 01:47:42;;;;;;;0.00;0.00;;;15.10;99.90;;;;;;4991539;28;20553;-71
2021/06/11 01:50:10;;;;;;;0.10;0.10;;;15.30;99.90;;;;;;4975552;28;20038;-72
2021/06/11 01:52:37;;;;;;;0.05;0.05;;;15.50;99.90;;;;;;4959379;28;20029;-72
2021/06/11 01:55:05;;;;;;;0.10;0.10;;;15.70;99.90;;;;;;4991548;28;20038;-72
2021/06/11 01:57:31;;;;;;;0.08;0.08;;;15.90;99.90;;;;;;4992337;28;20426;-72
2021/06/11 01:59:59;;;;;;;0.00;0.00;;;15.90;99.90;;;;;;4991624;28;20529;-72
2021/06/11 02:02:25;;;;;;;1.45;1.08;;;15.90;99.90;;;;;;4992710;28;20097;-72
2021/06/11 02:04:51;;;;;;;0.10;0.10;;;16.00;99.90;;;;;;4975317;28;20022;-72
2021/06/11 02:07:18;;;;;;;2.55;1.10;;;16.10;99.90;;;;;;4992562;28;20037;-70
2021/06/11 02:09:44;;;;;;;0.10;0.10;;;16.10;99.90;;;;;;4993155;28;20026;-72
2021/06/11 02:12:11;;;;;;;0.10;0.10;;;16.00;99.90;;;;;;4992534;28;20084;-72
2021/06/11 02:14:37;;;;;;;0.10;0.10;;;15.90;99.90;;;;;;4992649;28;20030;-71
2021/06/11 02:17:06;;;;;;;0.10;0.10;;;15.80;99.90;;;;;;4959044;28;20023;-71
2021/06/11 02:19:35;;;;;;;0.13;0.13;;;15.70;99.90;;;;;;4974902;28;20105;-72
2021/06/11 02:22:02;;;;;;;0.10;0.10;;;15.70;99.90;;;;;;4992407;28;20482;-72
2021/06/11 02:24:28;;;;;;;0.10;0.10;;;15.50;99.90;;;;;;4992461;28;20513;-72
2021/06/11 02:26:54;;;;;;;0.05;0.05;;;15.40;99.90;;;;;;4992523;28;20026;-72
2021/06/11 02:29:20;;;;;;;0.10;0.10;;;15.30;99.90;;;;;;4990993;28;20030;-72
2021/06/11 02:31:47;;;;;;;0.10;0.10;;;15.40;99.90;;;;;;4991472;28;20383;-72
2021/06/11 02:34:13;;;;;;;0.43;0.43;;;15.50;99.90;;;;;;4959180;28;20026;-72
2021/06/11 02:36:39;;;;;;;0.10;0.10;;;15.40;99.90;;;;;;4991223;28;20034;-71
2021/06/11 02:39:05;;;;;;;1.02;0.30;;;15.50;99.90;;;;;;4992233;28;20266;-72
2021/06/11 02:41:39;;;;;;;0.15;0.15;;;15.50;99.90;;;;;;4990998;28;20057;-72
2021/06/11 02:44:08;;;;;;;0.10;0.10;;;15.50;99.90;;;;;;4991274;28;20030;-71
2021/06/11 02:46:51;;;;;;;0.08;0.08;;;15.50;99.90;;;;;;4990924;28;20445;-71
2021/06/11 02:49:29;;;;;;;0.20;0.20;;;15.60;99.90;;;;;;4990895;28;20030;-72
2021/06/11 02:51:59;;;;;;;0.10;0.10;;;15.50;99.90;;;;;;4992124;28;20058;-72
2021/06/11 02:54:33;;;;;;;0.30;0.30;;;15.40;99.90;;;;;;4958849;28;20022;-72
2021/06/11 02:57:34;;;;;;;0.20;0.20;;;15.30;99.90;;;;;;4992290;28;20117;-72
2021/06/11 03:00:06;;;;;;;0.10;0.10;;;15.30;99.90;;;;;;4974247;28;20030;-72
2021/06/11 03:02:37;;;;;;;0.10;0.10;;;15.20;99.90;;;;;;4992178;28;20029;-72
2021/06/11 03:05:04;;;;;;;0.40;0.40;;;15.30;99.90;;;;;;4958703;28;20481;-72
2021/06/11 03:07:33;;;;;;;0.10;0.10;;;15.30;99.90;;;;;;4990758;28;20424;-72
2021/06/11 03:10:03;;;;;;;0.20;0.20;;;15.30;99.90;;;;;;4975690;28;20026;-72
2021/06/11 03:12:32;;;;;;;0.10;0.10;;;15.50;99.90;;;;;;4995678;28;20130;-72
2021/06/11 03:14:58;;;;;;;0.10;0.10;;;15.50;99.90;;;;;;4995856;28;20018;-71
2021/06/11 03:17:29;;;;;;;1.55;0.30;;;15.60;99.90;;;;;;4995682;28;20023;-71
2021/06/11 03:19:59;;;;;;;0.10;0.10;;;15.70;99.90;;;;;;4994434;28;20025;-72
2021/06/11 03:22:31;;;;;;;0.15;0.15;;;15.80;99.90;;;;;;4994516;28;20030;-72
2021/06/11 03:25:07;;;;;;;0.10;0.10;;;15.80;99.90;;;;;;4994366;28;20089;-71
2021/06/11 03:27:42;;;;;;;0.20;0.20;;;15.70;99.90;;;;;;4994257;28;20113;-72
2021/06/11 03:30:11;;;;;;;0.10;0.10;;;15.70;99.90;;;;;;4995485;28;20486;-72
2021/06/11 03:32:42;;;;;;;0.10;0.10;;;15.70;99.90;;;;;;4977840;28;20026;-74
2021/06/11 03:35:16;;;;;;;0.57;0.57;;;15.60;99.90;;;;;;4994335;28;20023;-72
2021/06/11 03:37:50;;;;;;;0.10;0.10;;;15.50;99.90;;;;;;4977926;28;20080;-72
2021/06/11 03:40:24;;;;;;;0.05;0.05;;;15.40;99.90;;;;;;4995294;28;20482;-72
2021/06/11 03:42:53;;;;;;;0.10;0.10;;;15.50;99.90;;;;;;4995270;28;20082;-72
2021/06/11 03:45:20;;;;;;;0.03;0.03;;;15.70;99.90;;;;;;4994023;28;20029;-72
2021/06/11 03:47:48;;;;;;;0.10;0.10;;;15.80;99.90;;;;;;4995103;28;20100;-72
2021/06/11 03:50:19;;;;;;;0.10;0.10;;;15.80;99.90;;;;;;4995075;28;20104;-72
2021/06/11 03:52:48;;;;;;;0.55;0.55;;;15.90;99.90;;;;;;4995088;28;20050;-72
2021/06/11 03:55:17;;;;;;;0.10;0.10;;;15.90;99.90;;;;;;4993593;28;20180;-72
2021/06/11 03:58:08;;;;;;;1.77;0.68;;;15.90;99.90;;;;;;4977415;28;20030;-71
2021/06/11 04:00:36;;;;;;;0.10;0.10;;;15.80;99.90;;;;;;4974657;28;20031;-72
2021/06/11 04:03:02;;;;;;;0.10;0.10;;;16.00;99.90;;;;;;4993532;28;20030;-72
2021/06/11 04:05:28;;;;;;;0.10;0.10;;;16.00;99.90;;;;;;4994839;28;20519;-71
2021/06/11 04:07:56;;;;;;;0.10;0.10;;;15.80;99.90;;;;;;4977144;28;20030;-72
2021/06/11 04:10:37;;;;;;;0.10;0.10;;;15.70;99.90;;;;;;4994714;28;20026;-72
2021/06/11 04:13:28;;;;;;;0.95;0.68;;;15.40;99.90;;;;;;4977051;28;20117;-71
2021/06/11 04:15:55;;;;;;;0.30;0.30;;;15.40;99.90;;;;;;4990242;28;20030;-71
2021/06/11 04:18:28;;;;;;;0.00;0.00;;;15.40;99.90;;;;;;4994413;28;20050;-72
2021/06/11 04:20:59;;;;;;;0.13;0.13;;;15.50;99.90;;;;;;4993971;28;20482;-72
2021/06/11 04:23:36;;;;;;;0.10;0.10;;;15.70;99.90;;;;;;4995039;28;20583;-72
2021/06/11 04:26:05;;;;;;;0.08;0.08;;;15.80;99.90;;;;;;4994317;28;20028;-72
2021/06/11 04:28:33;;;;;;;0.10;0.10;;;16.00;99.90;;;;;;4977104;28;20031;-72
2021/06/11 04:30:59;;;;;;;0.10;0.10;;;16.10;99.90;;;;;;4994198;28;20019;-72
2021/06/11 04:33:27;;;;;;;0.10;0.10;;;16.00;99.90;;;;;;4994292;28;20053;-73
2021/06/11 04:35:54;;;;;;;0.10;0.10;;;15.90;99.90;;;;;;4994231;28;20073;-72
2021/06/11 04:38:20;;;;;;;0.10;0.10;;;15.80;99.90;;;;;;4994381;28;20023;-73
2021/06/11 04:40:46;;;;;;;0.43;0.43;;;15.60;99.90;;;;;;4993925;28;20023;-72
2021/06/11 04:43:12;;;;;;;0.10;0.10;;;15.40;99.90;;;;;;4994462;28;20528;-73
2021/06/11 04:45:39;;;;;;;0.65;0.47;;;15.40;99.90;;;;;;4994127;28;20058;-73
2021/06/11 04:48:05;;;;;;;0.10;0.10;;;15.40;99.90;;;;;;4976687;28;20036;-73
2021/06/11 04:50:31;;;;;;;0.32;0.25;;;15.50;99.90;;;;;;4992649;28;20030;-73
2021/06/11 04:52:57;;;;;;;1.17;0.63;;;15.70;99.90;;;;;;4960484;28;20278;-72
2021/06/11 04:55:23;;;;;;;0.13;0.13;;;15.50;99.90;;;;;;4992687;28;20540;-73
2021/06/11 04:57:51;;;;;;;0.63;0.63;;;15.30;99.90;;;;;;4993796;28;20022;-73
2021/06/11 05:00:17;;;;;;;0.13;0.13;;;15.30;99.90;;;;;;4992933;28;20018;-72
2021/06/11 05:02:43;;;;;;;0.90;0.50;;;15.20;99.90;;;;;;4990671;28;20033;-73
2021/06/11 05:05:09;;;;;;;1.65;0.85;;;15.10;99.90;;;;;;4992847;28;20035;-73
2021/06/11 05:07:36;;;;;;;0.25;0.25;;;15.10;99.90;;;;;;4991200;28;20161;-73
2021/06/11 05:10:05;;;;;;;0.63;0.60;;;15.00;99.90;;;;;;4971885;28;20105;-72
2021/06/11 05:12:32;;;;;;;0.22;0.22;;;15.00;99.90;;;;;;4992629;28;20038;-72
2021/06/11 05:14:57;;;;;;;0.05;0.05;;;15.10;99.90;;;;;;4973017;28;20368;-72
2021/06/11 05:17:23;;;;;;;0.20;0.20;;;15.10;99.90;;;;;;4989128;28;20026;-73
2021/06/11 05:19:49;;;;;;;3.50;1.60;;;15.20;99.90;;;;;;4992568;28;20019;-73
2021/06/11 05:22:15;;;;;;;0.10;0.10;;;15.20;99.90;;;;;;5038048;22;20124;-76
2021/06/11 05:24:41;;;;;;;0.77;0.52;;;15.30;99.90;;;;;;5029065;28;20162;-76
2021/06/11 05:27:07;;;;;;;0.10;0.10;;;15.30;99.90;;;;;;5023676;28;20021;-75
2021/06/11 05:29:33;;;;;;;2.08;1.92;;;15.30;99.90;;;;;;5024361;28;20022;-76
2021/06/11 05:31:59;;;;;;;0.25;0.25;;;15.50;99.90;;;;;;5050222;28;20029;-76
2021/06/11 05:34:24;;;;;;;0.10;0.10;;;15.60;99.90;;;;;;5033281;28;20045;-76
2021/06/11 05:36:50;;;;;;;0.20;0.17;;;15.70;99.90;;;;;;5023910;28;20112;-76
2021/06/11 05:39:16;;;;;;;0.10;0.10;;;15.70;99.90;;;;;;5051349;28;20017;-76
2021/06/11 05:41:41;;;;;;;0.03;0.03;;;15.80;99.90;;;;;;5028537;28;20057;-76
2021/06/11 05:44:07;;;;;;;0.10;0.10;;;15.80;99.90;;;;;;5047905;28;20074;-76
2021/06/11 05:46:34;;;;;;;0.20;0.20;;;15.90;99.90;;;;;;5008096;28;20100;-76
2021/06/11 05:48:59;;;;;;;0.10;0.10;;;16.10;99.90;;;;;;5047555;28;20029;-77
2021/06/11 05:51:25;;;;;;;0.60;0.30;;;16.20;99.90;;;;;;5050894;28;20086;-77
2021/06/11 05:53:51;;;;;;;0.10;0.10;;;16.20;99.90;;;;;;5034296;28;20053;-77
2021/06/11 05:56:17;;;;;;;0.47;0.47;;;16.20;99.90;;;;;;5022753;28;20485;-77
2021/06/11 05:58:43;;;;;;;0.15;0.15;;;16.20;99.90;;;;;;5030341;28;20499;-76
2021/06/11 06:01:09;;;;;;;0.10;0.10;;;16.40;99.90;;;;;;5047084;28;20119;-76
2021/06/11 06:03:35;;;;;;;0.03;0.03;;;16.50;99.90;;;;;;5026449;28;20021;-76
2021/06/11 06:06:00;;;;;;;0.00;0.00;;;16.80;99.90;;;;;;5028178;28;20033;-76
2021/06/11 06:08:26;;;;;;;0.10;0.10;;;16.90;99.90;;;;;;5022473;28;20101;-76
2021/06/11 06:10:52;;;;;;;0.30;0.30;;;16.90;99.90;;;;;;5023663;28;20028;-76
2021/06/11 06:13:18;;;;;;;0.00;0.00;;;17.10;99.90;;;;;;5022837;28;20036;-76
2021/06/11 06:15:43;;;;;;;0.32;0.32;;;17.10;99.90;;;;;;5028133;28;20052;-76
2021/06/11 06:18:10;;;;;;;0.00;0.00;;;17.20;99.90;;;;;;5022966;28;20397;-76
2021/06/11 06:20:37;;;;;;;0.10;0.10;;;17.40;99.90;;;;;;5011697;28;20024;-76
2021/06/11 06:23:03;;;;;;;0.43;0.40;;;17.60;99.90;;;;;;5046340;28;20029;-76
2021/06/11 06:25:29;;;;;;;0.10;0.10;;;17.70;99.90;;;;;;5050994;28;20028;-76
2021/06/11 06:27:55;;;;;;;0.00;0.00;;;17.90;99.90;;;;;;5018048;28;20029;-77
2021/06/11 06:30:23;;;;;;;0.05;0.05;;;18.00;99.90;;;;;;5050708;28;20029;-76
2021/06/11 06:32:49;;;;;;;2.30;1.27;;;17.90;99.90;;;;;;5049980;28;20029;-76
2021/06/11 06:35:16;;;;;;;0.10;0.10;;;17.70;99.90;;;;;;5018480;28;20033;-77
2021/06/11 06:37:42;;;;;;;0.10;0.10;;;17.80;99.90;;;;;;5014703;28;20029;-77
2021/06/11 06:40:08;;;;;;;1.05;0.95;;;18.00;99.90;;;;;;5031698;28;20095;-77
2021/06/11 06:42:35;;;;;;;2.80;1.23;;;18.10;99.90;;;;;;5026806;28;20388;-77
2021/06/11 06:45:01;;;;;;;0.45;0.40;;;18.10;99.90;;;;;;5028466;28;20032;-76
2021/06/11 06:47:27;;;;;;;0.75;0.75;;;18.10;99.90;;;;;;5050123;28;20024;-76
2021/06/11 06:49:53;;;;;;;0.50;0.50;;;18.00;99.90;;;;;;5026936;28;20464;-76
2021/06/11 06:52:19;;;;;;;0.63;0.57;;;18.00;99.90;;;;;;5027867;28;20033;-76
2021/06/11 06:54:45;;;;;;;0.60;0.60;;;18.00;99.90;;;;;;5050241;28;20021;-77
2021/06/11 06:57:11;;;;;;;0.38;0.38;;;18.00;99.90;;;;;;5031803;28;20036;-77
2021/06/11 06:59:38;;;;;;;1.20;1.10;;;18.00;99.90;;;;;;5025033;28;20036;-77
2021/06/11 07:02:04;;;;;;;0.10;0.10;;;18.00;99.90;;;;;;5026935;28;20040;-76
2021/06/11 07:04:30;;;;;;;0.20;0.20;;;18.10;99.90;;;;;;5052570;28;20415;-77
2021/06/11 07:06:57;;;;;;;0.03;0.03;;;18.30;99.90;;;;;;5055293;28;20024;-78
2021/06/11 07:09:23;;;;;;;0.10;0.10;;;18.60;99.90;;;;;;5056997;28;20052;-76
2021/06/11 07:11:49;;;;;;;0.10;0.10;;;18.70;99.90;;;;;;5010624;28;20029;-76
2021/06/11 07:14:16;;;;;;;0.35;0.35;;;19.10;99.90;;;;;;5009905;28;20025;-74
2021/06/11 07:16:42;;;;;;;6.07;1.65;;;19.00;99.90;;;;;;5031308;28;20047;-74
2021/06/11 07:19:09;;;;;;;3.20;1.08;;;18.90;99.90;;;;;;5002623;28;20040;-75
2021/06/11 07:21:35;;;;;;;0.10;0.10;;;18.90;99.90;;;;;;5009203;28;20124;-76
2021/06/11 07:24:01;;;;;;;0.10;0.10;;;18.90;99.90;;;;;;5032779;28;20033;-76
2021/06/11 07:26:26;;;;;;;1.33;1.20;;;19.10;99.90;;;;;;5037674;28;20043;-80
2021/06/11 07:28:52;;;;;;;0.35;0.28;;;19.20;99.90;;;;;;5036476;28;20033;-80
2021/06/11 07:31:18;;;;;;;0.13;0.13;;;19.40;99.90;;;;;;5028499;28;20040;-80
2021/06/11 07:33:44;;;;;;;0.10;0.10;;;19.60;99.90;;;;;;5026403;28;20096;-83
2021/06/11 07:36:10;;;;;;;0.10;0.10;;;19.80;99.90;;;;;;5014909;28;20057;-81
2021/06/11 07:38:37;;;;;;;0.10;0.10;;;20.00;99.90;;;;;;5059492;28;20033;-81
2021/06/11 07:41:03;;;;;;;0.10;0.10;;;19.80;99.90;;;;;;5038770;28;20043;-81
2021/06/11 07:43:29;;;;;;;0.90;0.80;;;19.80;99.90;;;;;;5016717;28;20026;-83
2021/06/11 07:45:55;;;;;;;0.20;0.20;;;19.90;99.90;;;;;;5018949;28;20022;-81
2021/06/11 07:48:21;;;;;;;0.57;0.57;;;20.10;99.90;;;;;;5036333;28;20029;-82
2021/06/11 07:50:47;;;;;;;1.65;1.48;;;20.00;99.90;;;;;;5033318;28;20671;-82
2021/06/11 07:53:13;;;;;;;1.85;0.98;;;20.00;99.90;;;;;;5037417;28;20435;-82
2021/06/11 07:55:40;;;;;;;0.00;0.00;;;19.90;99.50;;;;;;5014566;28;20060;-80
2021/06/11 07:58:06;;;;;;;0.10;0.10;;;20.00;99.90;;;;;;5007503;28;20106;-80
2021/06/11 08:00:32;;;;;;;0.20;0.20;;;20.30;99.80;;;;;;5029657;28;20551;-82
2021/06/11 08:02:59;;;;;;;0.17;0.17;;;20.50;99.60;;;;;;5013483;28;20101;-81
2021/06/11 08:05:26;;;;;;;0.10;0.10;;;20.60;97.20;;;;;;5020738;28;20029;-81
2021/06/11 08:07:52;;;;;;;0.20;0.20;;;20.70;97.30;;;;;;5023132;28;20032;-80
2021/06/11 08:10:19;;;;;;;0.15;0.15;;;21.10;94.60;;;;;;5019642;28;20034;-80
2021/06/11 08:12:45;;;;;;;0.20;0.20;;;21.50;92.00;;;;;;5023554;28;20035;-80
2021/06/11 08:15:11;;;;;;;0.73;0.35;;;21.70;90.50;;;;;;5017022;28;20396;-81
2021/06/11 08:17:37;;;;;;;3.50;3.25;;;21.80;86.50;;;;;;5038160;28;20018;-80
2021/06/11 08:20:06;;;;;;;0.40;0.40;;;22.00;86.40;;;;;;5039315;28;20028;-80
2021/06/11 08:22:32;;;;;;;2.90;1.90;;;21.90;90.10;;;;;;5017020;28;20115;-81
2021/06/11 08:24:57;;;;;;;1.45;1.10;;;21.90;85.70;;;;;;5019207;28;20572;-82
2021/06/11 08:27:23;;;;;;;0.98;0.98;;;21.90;86.30;;;;;;5026862;28;20021;-83
2021/06/11 08:29:49;;;;;;;0.10;0.10;;;21.60;87.10;;;;;;5049345;28;20037;-81
2021/06/11 08:32:15;;;;;;;0.65;0.57;;;21.30;89.80;;;;;;5046453;28;20021;-82
2021/06/11 08:34:43;;;;;;;0.15;0.15;;;21.70;89.00;;;;;;5025602;28;20030;-80
2021/06/11 08:37:09;;;;;;;0.75;0.43;;;22.20;88.10;;;;;;5020019;28;20024;-81
2021/06/11 08:39:36;;;;;;;0.30;0.30;;;21.90;85.90;;;;;;5003073;28;20032;-80
2021/06/11 08:42:04;;;;;;;0.10;0.10;;;21.70;87.50;;;;;;5023544;28;20032;-80
2021/06/11 08:44:30;;;;;;;0.30;0.30;;;21.40;88.90;;;;;;5060974;28;20176;-82
2021/06/11 08:46:56;;;;;;;0.47;0.47;;;21.20;88.30;;;;;;5021988;28;20395;-82
2021/06/11 08:49:24;;;;;;;0.10;0.10;;;21.10;88.60;;;;;;5016745;28;20041;-80
2021/06/11 08:51:59;;;;;;;0.20;0.20;;;21.20;87.70;;;;;;5024696;28;20028;-80
2021/06/11 08:54:26;;;;;;;0.73;0.73;;;21.30;84.90;;;;;;5005522;28;20021;-81
2021/06/11 08:56:53;;;;;;;0.20;0.20;;;21.50;87.90;;;;;;5016239;28;20017;-82
2021/06/11 08:59:19;;;;;;;0.03;0.03;;;22.30;83.10;;;;;;5028592;28;20021;-81
2021/06/11 09:01:45;;;;;;;0.13;0.13;;;22.60;81.90;;;;;;5034382;28;20087;-80
2021/06/11 09:04:11;;;;;;;0.00;0.00;;;22.40;84.70;;;;;;5058286;28;20024;-81
2021/06/11 09:06:37;;;;;;;0.20;0.20;;;22.20;81.70;;;;;;5019781;28;20031;-80
2021/06/11 09:09:05;;;;;;;1.65;1.33;;;22.00;81.30;;;;;;5021955;28;20051;-82
2021/06/11 09:11:36;;;;;;;0.00;0.00;;;22.50;80.00;;;;;;5040497;28;20032;-80
2021/06/11 09:14:06;;;;;;;1.20;0.75;;;23.00;78.00;;;;;;5023519;28;20052;-80
2021/06/11 09:17:01;;;;;;;0.60;0.47;;;23.20;75.00;;;;;;5026691;28;20025;-80
2021/06/11 09:19:28;;;;;;;0.00;0.00;;;22.70;76.70;;;;;;5029864;28;20025;-80
2021/06/11 09:21:58;;;;;;;0.00;0.00;;;22.30;77.70;;;;;;5035130;28;20120;-80
2021/06/11 09:24:32;;;;;;;0.32;0.32;;;21.90;79.50;;;;;;5021269;28;20025;-80
2021/06/11 09:26:58;;;;;;;0.10;0.10;;;21.80;81.40;;;;;;5058186;28;20059;-80
2021/06/11 09:29:29;;;;;;;0.50;0.50;;;21.80;81.10;;;;;;5008254;28;20484;-76
2021/06/11 09:32:22;;;;;;;0.47;0.47;;;22.00;79.80;;;;;;5051662;28;20040;-76
2021/06/11 09:34:55;;;;;;;0.65;0.65;;;21.90;80.20;;;;;;5037519;28;20037;-76
2021/06/11 09:37:27;;;;;;;0.30;0.30;;;21.90;79.90;;;;;;5005137;28;20521;-77
2021/06/11 09:40:13;;;;;;;0.35;0.35;;;22.50;76.80;;;;;;5047064;28;20013;-77
2021/06/11 09:42:45;;;;;;;0.30;0.30;;;22.90;75.80;;;;;;5028934;28;20120;-76
2021/06/11 09:45:12;;;;;;;0.10;0.10;;;23.60;71.50;;;;;;5062520;28;20515;-76
2021/06/11 09:47:51;;;;;;;0.10;0.10;;;24.10;68.00;;;;;;5050559;28;20025;-76
2021/06/11 09:50:16;;;;;;;0.20;0.20;;;24.70;66.70;;;;;;5065443;28;20025;-77
2021/06/11 09:52:52;;;;;;;0.32;0.25;;;25.10;66.00;;;;;;5053017;28;20039;-80
2021/06/11 09:55:23;;;;;;;0.35;0.35;;;25.60;64.00;;;;;;5038962;28;20021;-80
2021/06/11 09:58:11;;;;;;;0.13;0.13;;;25.80;60.60;;;;;;5033890;28;20136;-80
2021/06/11 10:00:46;;;;;;;0.22;0.22;;;26.00;60.80;;;;;;5010754;28;20106;-77
2021/06/11 10:03:15;;;;;;;8.10;0.55;;;25.80;62.00;;;;;;5008715;28;20028;-78
2021/06/11 10:05:42;;;;;;;0.00;0.00;;;25.30;62.40;;;;;;5033079;28;20480;-78
2021/06/11 10:08:09;;;;;;;0.45;0.28;;;24.80;65.70;;;;;;4995666;28;20444;-77
2021/06/11 10:10:36;;;;;;;0.00;0.00;;;24.80;66.20;;;;;;5024322;28;20021;-75
2021/06/11 10:13:02;;;;;;;0.03;0.03;;;24.80;64.50;;;;;;5049520;28;20036;-75
2021/06/11 10:15:31;;;;;;;2.20;0.93;;;24.80;67.20;;;;;;5048873;28;20021;-75
2021/06/11 10:17:57;;;;;;;4.47;1.17;;;24.60;64.70;;;;;;5028780;28;20025;-76
2021/06/11 10:20:23;;;;;;;0.00;0.00;;;24.80;63.80;;;;;;5018345;28;20024;-75
2021/06/11 10:22:49;;;;;;;0.00;0.00;;;25.10;63.60;;;;;;5051336;28;20096;-75
2021/06/11 10:25:15;;;;;;;0.00;0.00;;;25.20;62.70;;;;;;5006453;28;20068;-75
2021/06/11 10:27:42;;;;;;;0.20;0.17;;;24.50;61.30;;;;;;5050851;28;20025;-76
2021/06/11 10:30:10;;;;;;;0.03;0.03;;;24.40;60.10;;;;;;5044168;28;20033;-75
2021/06/11 10:32:40;;;;;;;0.50;0.50;;;24.70;59.00;;;;;;5018750;28;20637;-75
2021/06/11 10:35:09;;;;;;;0.08;0.08;;;24.90;56.90;;;;;;5046246;28;20063;-75
2021/06/11 10:37:38;;;;;;;0.00;0.00;;;25.50;57.80;;;;;;5028390;28;20461;-75
2021/06/11 10:40:31;;;;;;;0.85;0.30;;;25.90;55.00;;;;;;5019917;28;20029;-75
2021/06/11 10:43:19;;;;;;;0.20;0.20;;;25.90;57.60;;;;;;5047692;28;20040;-75
2021/06/11 10:45:45;;;;;;;0.00;0.00;;;25.90;58.60;;;;;;5043922;28;20435;-75
2021/06/11 10:48:11;;;;;;;0.88;0.75;;;26.20;58.20;;;;;;5050951;28;20083;-75
2021/06/11 10:50:38;;;;;;;0.10;0.10;;;26.60;57.10;;;;;;5050472;28;20539;-76
2021/06/11 10:53:11;;;;;;;0.13;0.13;;;26.80;57.80;;;;;;5050895;28;20048;-75
2021/06/11 10:55:48;;;;;;;0.80;0.75;;;26.70;57.40;;;;;;5049324;28;20029;-75
2021/06/11 10:58:14;;;;;;;0.00;0.00;;;26.00;53.70;;;;;;5045621;28;20024;-76
2021/06/11 11:00:44;;;;;;;0.05;0.05;;;25.90;56.90;;;;;;5050010;28;20017;-76
2021/06/11 11:03:30;;;;;;;0.03;0.03;;;25.20;56.40;;;;;;5051395;28;20079;-75
2021/06/11 11:05:56;;;;;;;0.13;0.13;;;24.80;55.60;;;;;;5038745;28;20033;-75
2021/06/11 11:08:42;;;;;;;0.00;0.00;;;24.90;56.60;;;;;;5051166;28;20025;-75
2021/06/11 11:11:32;;;;;;;0.10;0.10;;;24.50;57.90;;;;;;5046143;28;20021;-76
2021/06/11 11:13:59;;;;;;;0.20;0.20;;;24.40;58.10;;;;;;5014913;28;20435;-75
2021/06/11 11:16:28;;;;;;;0.00;0.00;;;24.30;58.70;;;;;;5021552;28;20017;-75
2021/06/11 11:18:54;;;;;;;0.00;0.00;;;24.30;58.80;;;;;;5042190;28;20026;-75
2021/06/11 11:21:29;;;;;;;0.45;0.10;;;24.20;59.60;;;;;;5048740;22;20029;-89
2021/06/11 11:24:01;;;;;;;0.00;0.00;;;24.50;59.10;;;;;;5042379;28;20033;-91
2021/06/11 11:26:41;;;;;;;1.75;1.65;;;25.20;61.20;;;;;;5009672;28;20478;-90
2021/06/11 11:29:41;;;;;;;4.22;3.75;;;25.80;58.20;;;;;;5031150;28;20502;-91
2021/06/11 11:32:07;;;;;;;1.60;1.40;;;25.70;57.50;;;;;;5017378;28;20095;-87
2021/06/11 11:34:35;;;;;;;3.72;1.63;;;25.70;58.20;;;;;;5016499;28;20029;-87
2021/06/11 11:37:12;;;;;;;2.15;1.00;;;25.60;56.40;;;;;;5021285;28;20032;-87
2021/06/11 11:39:39;;;;;;;0.10;0.10;;;25.80;58.10;;;;;;5017470;28;20032;-87
2021/06/11 11:42:06;;;;;;;0.17;0.17;;;25.70;57.60;;;;;;5015153;28;20024;-87
2021/06/11 11:44:33;;;;;;;0.17;0.17;;;26.00;57.00;;;;;;5046960;28;20055;-86
2021/06/11 11:47:02;;;;;;;0.40;0.40;;;26.00;54.80;;;;;;5017940;28;20026;-87
2021/06/11 11:49:28;;;;;;;0.10;0.10;;;25.90;55.00;;;;;;5025959;28;20017;-87
2021/06/11 11:51:54;;;;;;;0.45;0.20;;;25.80;54.20;;;;;;5044032;28;20032;-87
2021/06/11 11:54:19;;;;;;;0.60;0.20;;;25.80;54.70;;;;;;5025888;28;20059;-87
2021/06/11 11:56:45;;;;;;;1.33;1.08;;;25.60;55.40;;;;;;5038290;28;20489;-87
2021/06/11 11:59:11;;;;;;;0.00;0.00;;;25.60;55.00;;;;;;5033159;28;20429;-88
2021/06/11 12:01:40;;;;;;;2.92;1.55;;;25.40;55.70;;;;;;5026203;28;20025;-95
2021/06/11 12:04:09;;;;;;;0.00;0.00;;;25.60;55.60;;;;;;5025828;28;20028;-92
2021/06/11 12:06:42;;;;;;;0.28;0.25;;;25.80;55.70;;;;;;5036586;28;20025;-93
2021/06/11 12:09:09;;;;;;;0.05;0.05;;;25.80;54.90;;;;;;5031333;28;20092;-93
2021/06/11 12:11:34;;;;;;;0.00;0.00;;;26.00;55.30;;;;;;5035485;28;20034;-92
2021/06/11 12:14:18;;;;;;;0.08;0.08;;;26.00;54.60;;;;;;5033808;28;20017;-92
2021/06/11 12:17:15;;;;;;;0.08;0.08;;;25.70;55.60;;;;;;5031975;28;20021;-95
2021/06/11 12:20:06;;;;;;;0.00;0.00;;;25.20;56.30;;;;;;5053839;28;20021;-95
2021/06/11 12:22:31;;;;;;;0.10;0.10;;;25.00;58.40;;;;;;5042524;28;20033;-94
2021/06/11 12:28:26;;;;;;;0.08;0.08;;;24.60;59.30;;;;;;5051524;28;20107;-94
2021/06/11 12:30:52;;;;;;;0.00;0.00;;;24.40;60.50;;;;;;5034919;28;20030;-94
2021/06/11 12:33:18;;;;;;;0.00;0.00;;;24.30;60.00;;;;;;5054470;22;20041;-72
2021/06/11 12:35:43;;;;;;;1.45;1.02;;;24.30;58.10;;;;;;5057206;28;20427;-74
2021/06/11 12:38:09;;;;;;;0.05;0.05;;;24.20;58.10;;;;;;5073881;28;20368;-74
2021/06/11 12:40:38;;;;;;;0.10;0.10;;;24.20;57.70;;;;;;5092705;28;20106;-74
2021/06/11 12:43:05;;;;;;;0.00;0.00;;;24.50;57.60;;;;;;5062905;28;20028;-74
2021/06/11 12:45:32;;;;;;;2.20;0.30;;;24.60;56.20;;;;;;5072788;28;20119;-73
2021/06/11 12:47:58;;;;;;;0.10;0.10;;;24.80;57.20;;;;;;5072090;28;20029;-73
2021/06/11 12:50:24;;;;;;;0.00;0.00;;;24.70;56.80;;;;;;5058939;28;20024;-73
2021/06/11 12:52:50;;;;;;;0.10;0.10;;;24.50;57.10;;;;;;5072030;28;20028;-72
2021/06/11 12:55:16;;;;;;;1.75;0.38;;;24.90;58.50;;;;;;5063427;28;20480;-72
2021/06/11 12:57:42;;;;;;;0.47;0.30;;;24.90;57.80;;;;;;5081113;28;20016;-74
2021/06/11 13:00:09;;;;;;;0.00;0.00;;;25.00;59.00;;;;;;5075108;28;20033;-74